createdAt,value
2023-01-09T00:00:56.624Z,3.18
2023-01-09T00:03:23.054Z,2.73
2023-01-09T00:05:49.508Z,2.64
2023-01-09T00:08:15.872Z,2.58
2023-01-09T00:10:42.249Z,2.69
2023-01-09T00:13:08.666Z,2.38
2023-01-09T00:15:35.032Z,2.36
2023-01-09T00:18:01.497Z,2.34
2023-01-09T00:20:27.984Z,1.80
2023-01-09T00:22:54.393Z,2.00
2023-01-09T00:25:20.778Z,2.20
2023-01-09T00:27:47.226Z,2.11
2023-01-09T00:30:13.595Z,2.47
2023-01-09T00:32:39.961Z,2.78
2023-01-09T00:35:06.344Z,3.04
2023-01-09T00:37:32.714Z,2.90
2023-01-09T00:39:59.106Z,3.20
2023-01-09T00:42:25.486Z,3.22
2023-01-09T00:44:51.911Z,3.25
2023-01-09T00:47:18.276Z,3.19
2023-01-09T00:49:44.673Z,2.89
2023-01-09T00:52:11.032Z,2.42
2023-01-09T00:54:37.407Z,1.90
2023-01-09T00:57:03.768Z,1.37
2023-01-09T00:59:30.220Z,1.44
2023-01-09T01:01:56.828Z,2.11
2023-01-09T01:04:23.281Z,1.31
2023-01-09T01:06:49.732Z,0.39
2023-01-09T01:09:16.081Z,0.25
2023-01-09T01:11:42.443Z,0.24
2023-01-09T01:14:08.827Z,0.31
2023-01-09T01:16:35.207Z,0.20
2023-01-09T01:19:01.713Z,0.23
2023-01-09T01:21:28.327Z,0.16
2023-01-09T01:23:54.716Z,0.20
2023-01-09T01:26:21.208Z,0.13
2023-01-09T01:28:47.585Z,0.17
2023-01-09T01:31:13.965Z,0.16
2023-01-09T01:33:40.343Z,0.23
2023-01-09T01:36:06.764Z,0.25
2023-01-09T01:38:33.163Z,0.83
2023-01-09T01:40:59.515Z,0.28
2023-01-09T01:43:25.955Z,0.14
2023-01-09T01:45:52.359Z,0.12
2023-01-09T01:48:18.737Z,0.27
2023-01-09T01:50:45.125Z,0.36
2023-01-09T01:53:11.490Z,0.34
2023-01-09T01:55:37.868Z,1.28
2023-01-09T01:58:04.486Z,0.24
2023-01-09T02:00:31.068Z,0.25
2023-01-09T02:02:57.502Z,0.20
2023-01-09T02:05:23.897Z,0.31
2023-01-09T02:07:50.316Z,0.28
2023-01-09T02:10:16.800Z,0.22
2023-01-09T02:12:43.215Z,1.03
2023-01-09T02:15:09.643Z,0.37
2023-01-09T02:17:35.998Z,0.34
2023-01-09T02:20:02.484Z,0.32
2023-01-09T02:22:28.916Z,0.40
2023-01-09T02:24:55.313Z,0.30
2023-01-09T02:27:21.765Z,0.39
2023-01-09T02:29:48.250Z,0.47
2023-01-09T02:32:14.639Z,0.41
2023-01-09T02:34:40.998Z,0.33
2023-01-09T02:37:07.357Z,0.42
2023-01-09T02:39:33.802Z,0.27
2023-01-09T02:42:00.173Z,0.31
2023-01-09T02:44:26.580Z,0.37
2023-01-09T02:46:53.106Z,0.47
2023-01-09T02:49:19.532Z,0.23
2023-01-09T02:51:45.964Z,0.29
2023-01-09T02:54:12.361Z,0.34
2023-01-09T02:56:38.717Z,0.30
2023-01-09T02:59:05.108Z,0.30
2023-01-09T03:01:31.592Z,0.31
2023-01-09T03:03:58.006Z,0.27
2023-01-09T03:06:24.921Z,0.36
2023-01-09T03:08:52.341Z,0.30
2023-01-09T03:11:18.725Z,0.35
2023-01-09T03:13:45.185Z,0.32
2023-01-09T03:16:11.622Z,0.32
2023-01-09T03:18:38.068Z,0.33
2023-01-09T03:21:04.553Z,0.37
2023-01-09T03:23:30.941Z,0.29
2023-01-09T03:25:58.314Z,0.25
2023-01-09T03:28:24.687Z,0.28
2023-01-09T03:30:51.058Z,0.25
2023-01-09T03:33:17.429Z,0.26
2023-01-09T03:35:43.887Z,0.24
2023-01-09T03:38:10.262Z,0.22
2023-01-09T03:40:36.621Z,0.33
2023-01-09T03:43:03.035Z,0.31
2023-01-09T03:45:29.490Z,0.29
2023-01-09T03:47:55.967Z,0.29
2023-01-09T03:50:22.335Z,0.37
2023-01-09T03:52:48.733Z,0.22
2023-01-09T03:55:15.780Z,0.20
2023-01-09T03:57:42.212Z,0.17
2023-01-09T04:00:08.657Z,0.12
2023-01-09T04:02:35.035Z,0.16
2023-01-09T04:05:01.423Z,0.15
2023-01-09T04:07:27.839Z,0.19
2023-01-09T04:09:54.277Z,0.29
2023-01-09T04:12:20.690Z,0.34
2023-01-09T04:14:47.085Z,0.31
2023-01-09T04:17:13.474Z,0.24
2023-01-09T04:19:39.856Z,0.44
2023-01-09T04:22:06.317Z,0.30
2023-01-09T04:24:32.754Z,0.26
2023-01-09T04:26:59.139Z,0.40
2023-01-09T04:29:25.583Z,0.23
2023-01-09T04:31:53.027Z,0.66
2023-01-09T04:34:19.424Z,0.52
2023-01-09T04:36:45.994Z,0.40
2023-01-09T04:39:12.458Z,0.24
2023-01-09T04:41:39.065Z,0.35
2023-01-09T04:44:05.437Z,0.25
2023-01-09T04:46:31.787Z,0.30
2023-01-09T04:48:58.196Z,0.43
2023-01-09T04:51:24.567Z,0.52
2023-01-09T04:53:51.088Z,0.53
2023-01-09T04:56:17.452Z,0.38
2023-01-09T04:58:43.831Z,0.41
2023-01-09T05:01:10.347Z,0.51
2023-01-09T05:03:36.773Z,0.55
2023-01-09T05:06:03.175Z,0.65
2023-01-09T05:08:29.616Z,0.64
2023-01-09T05:10:55.990Z,0.62
2023-01-09T05:13:22.391Z,0.44
2023-01-09T05:15:48.781Z,0.58
2023-01-09T05:18:15.248Z,0.48
2023-01-09T05:20:41.659Z,0.50
2023-01-09T05:23:08.093Z,0.48
2023-01-09T05:25:34.468Z,0.59
2023-01-09T05:28:00.839Z,0.60
2023-01-09T05:30:27.364Z,7.31
2023-01-09T05:32:53.765Z,4.59
2023-01-09T05:35:22.795Z,1.16
2023-01-09T05:37:49.169Z,0.58
2023-01-09T05:40:15.548Z,0.50
2023-01-09T05:42:41.909Z,0.59
2023-01-09T05:45:09.339Z,0.51
2023-01-09T05:47:35.704Z,0.67
2023-01-09T05:50:02.129Z,0.55
2023-01-09T05:52:28.497Z,0.46
2023-01-09T05:54:54.956Z,0.56
2023-01-09T05:57:21.394Z,3.19
2023-01-09T05:59:47.768Z,1.58
2023-01-09T06:02:14.220Z,0.57
2023-01-09T06:04:40.683Z,0.63
2023-01-09T06:07:07.082Z,0.50
2023-01-09T06:09:34.205Z,0.97
2023-01-09T06:12:01.613Z,0.60
2023-01-09T06:14:28.006Z,0.53
2023-01-09T06:16:54.350Z,0.55
2023-01-09T06:19:20.733Z,0.66
2023-01-09T06:21:47.112Z,0.70
2023-01-09T06:24:13.473Z,0.99
2023-01-09T06:26:39.826Z,0.70
2023-01-09T06:29:06.185Z,0.70
2023-01-09T06:31:32.609Z,0.83
2023-01-09T06:33:59.000Z,0.73
2023-01-09T06:36:27.442Z,0.78
2023-01-09T06:38:53.819Z,1.25
2023-01-09T06:41:20.211Z,0.83
2023-01-09T06:43:46.648Z,0.87
2023-01-09T06:46:13.080Z,0.66
2023-01-09T06:48:39.525Z,0.76
2023-01-09T06:51:05.911Z,0.71
2023-01-09T06:53:32.383Z,2.11
2023-01-09T06:55:58.748Z,1.13
2023-01-09T06:58:25.200Z,0.92
2023-01-09T07:00:51.573Z,0.90
2023-01-09T07:03:17.950Z,1.08
2023-01-09T07:05:44.445Z,1.12
2023-01-09T07:08:10.823Z,0.76
2023-01-09T07:10:37.195Z,1.91
2023-01-09T07:13:03.626Z,1.35
2023-01-09T07:15:30.018Z,0.92
2023-01-09T07:17:56.742Z,0.86
2023-01-09T07:20:23.495Z,0.97
2023-01-09T07:22:49.906Z,1.28
2023-01-09T07:25:16.341Z,0.96
2023-01-09T07:27:42.694Z,1.06
2023-01-09T07:30:09.257Z,1.48
2023-01-09T07:32:35.630Z,1.07
2023-01-09T07:35:02.085Z,0.82
2023-01-09T07:37:28.484Z,0.88
2023-01-09T07:39:54.873Z,0.94
2023-01-09T07:42:21.432Z,1.06
2023-01-09T07:44:47.908Z,1.08
2023-01-09T07:47:14.287Z,0.91
2023-01-09T07:49:40.715Z,0.91
2023-01-09T07:52:07.116Z,0.65
2023-01-09T07:54:33.492Z,0.99
2023-01-09T07:56:59.885Z,0.80
2023-01-09T07:59:26.326Z,0.86
2023-01-09T08:01:52.785Z,1.11
2023-01-09T08:04:19.397Z,0.78
2023-01-09T08:06:45.912Z,0.75
2023-01-09T08:09:12.295Z,0.88
2023-01-09T08:11:38.721Z,0.89
2023-01-09T08:14:05.131Z,1.09
2023-01-09T08:16:31.537Z,1.62
2023-01-09T08:18:57.918Z,1.09
2023-01-09T08:21:24.514Z,0.87
2023-01-09T08:23:50.902Z,0.97
2023-01-09T08:26:17.385Z,1.01
2023-01-09T08:28:43.916Z,0.94
2023-01-09T08:31:10.563Z,1.71
2023-01-09T08:33:37.766Z,1.73
2023-01-09T08:36:05.653Z,1.48
2023-01-09T08:38:32.382Z,1.25
2023-01-09T08:41:00.827Z,1.33
2023-01-09T08:43:27.227Z,1.45
2023-01-09T08:45:53.663Z,1.86
2023-01-09T08:48:20.074Z,1.55
2023-01-09T08:50:46.446Z,1.35
2023-01-09T08:53:12.836Z,1.49
2023-01-09T08:55:39.400Z,1.52
2023-01-09T08:58:05.803Z,1.85
2023-01-09T09:00:32.175Z,1.80
2023-01-09T09:02:58.646Z,2.01
2023-01-09T09:05:25.133Z,1.78
2023-01-09T09:07:51.547Z,1.62
2023-01-09T09:10:18.041Z,1.62
2023-01-09T09:12:44.447Z,1.30
2023-01-09T09:15:10.899Z,1.47
2023-01-09T09:17:37.311Z,1.57
2023-01-09T09:20:04.385Z,1.58
2023-01-09T09:22:30.828Z,1.39
2023-01-09T09:24:57.216Z,1.65
2023-01-09T09:27:23.589Z,1.61
2023-01-09T09:29:50.100Z,1.70
2023-01-09T09:32:16.532Z,1.55
2023-01-09T09:34:42.964Z,1.43
2023-01-09T09:37:09.568Z,1.54
2023-01-09T09:39:35.978Z,1.57
2023-01-09T09:42:02.479Z,1.37
2023-01-09T09:44:28.864Z,1.68
2023-01-09T09:46:55.298Z,1.63
2023-01-09T09:49:21.696Z,1.79
2023-01-09T09:51:48.052Z,1.90
2023-01-09T09:54:14.482Z,2.09
2023-01-09T09:56:40.861Z,1.67
2023-01-09T09:59:07.219Z,1.85
2023-01-09T10:01:34.699Z,1.93
2023-01-09T10:04:01.356Z,1.63
2023-01-09T10:06:27.804Z,2.21
2023-01-09T10:08:54.199Z,1.86
2023-01-09T10:11:20.579Z,1.34
2023-01-09T10:13:46.983Z,1.31
2023-01-09T10:16:13.445Z,1.66
2023-01-09T10:18:39.893Z,2.23
2023-01-09T10:21:06.264Z,2.00
2023-01-09T10:23:32.646Z,2.14
2023-01-09T10:25:59.077Z,2.54
2023-01-09T10:28:25.551Z,2.28
2023-01-09T10:30:53.036Z,2.03
2023-01-09T10:33:19.421Z,1.81
2023-01-09T10:35:48.159Z,1.97
2023-01-09T10:38:14.764Z,1.69
2023-01-09T10:40:41.190Z,1.94
2023-01-09T10:43:07.557Z,2.22
2023-01-09T10:45:34.036Z,1.60
2023-01-09T10:48:00.545Z,1.64
2023-01-09T10:50:29.123Z,1.68
2023-01-09T10:52:55.579Z,1.71
2023-01-09T10:55:21.960Z,1.42
2023-01-09T10:57:48.344Z,1.82
2023-01-09T11:00:15.920Z,1.86
2023-01-09T11:02:42.390Z,1.53
2023-01-09T11:05:08.818Z,1.38
2023-01-09T11:07:35.272Z,1.21
2023-01-09T11:10:01.674Z,1.14
2023-01-09T11:12:28.071Z,1.27
2023-01-09T11:14:54.452Z,1.32
2023-01-09T11:17:20.797Z,1.26
2023-01-09T11:19:47.364Z,1.01
2023-01-09T11:22:13.721Z,1.37
2023-01-09T11:24:40.101Z,1.11
2023-01-09T11:27:06.559Z,1.48
2023-01-09T11:29:32.925Z,1.87
2023-01-09T11:31:59.298Z,1.73
2023-01-09T11:34:25.780Z,1.48
2023-01-09T11:36:52.346Z,1.33
2023-01-09T11:39:18.786Z,1.56
2023-01-09T11:41:45.202Z,1.95
2023-01-09T11:44:11.640Z,1.87
2023-01-09T11:46:38.123Z,1.53
2023-01-09T11:49:04.556Z,1.86
2023-01-09T11:51:30.912Z,1.47
2023-01-09T11:53:57.327Z,1.71
2023-01-09T11:56:23.846Z,1.59
2023-01-09T11:58:50.202Z,1.60
2023-01-09T12:01:16.561Z,1.15
2023-01-09T12:03:43.001Z,1.25
2023-01-09T12:06:09.420Z,1.41
2023-01-09T12:08:35.820Z,1.18
2023-01-09T12:11:02.200Z,1.22
2023-01-09T12:13:28.652Z,0.99
2023-01-09T12:15:55.071Z,1.11
2023-01-09T12:18:21.432Z,0.95
2023-01-09T12:20:47.806Z,1.07
2023-01-09T12:23:14.163Z,0.82
2023-01-09T12:25:40.546Z,0.96
2023-01-09T12:28:06.941Z,1.02
2023-01-09T12:30:33.446Z,1.06
2023-01-09T12:32:59.996Z,1.21
2023-01-09T12:35:26.431Z,1.03
2023-01-09T12:37:52.830Z,1.34
2023-01-09T12:40:19.227Z,1.10
2023-01-09T12:42:45.646Z,1.08
2023-01-09T12:45:12.170Z,1.42
2023-01-09T12:47:38.611Z,1.34
2023-01-09T12:50:05.096Z,1.67
2023-01-09T12:52:31.529Z,1.48
2023-01-09T12:54:57.925Z,1.40
2023-01-09T12:57:25.435Z,1.53
2023-01-09T12:59:51.889Z,1.58
2023-01-09T13:02:18.338Z,1.56
2023-01-09T13:04:44.789Z,1.59
2023-01-09T13:07:11.164Z,1.60
2023-01-09T13:09:37.530Z,1.50
2023-01-09T13:12:04.203Z,1.65
2023-01-09T13:14:30.603Z,1.12
2023-01-09T13:16:57.080Z,1.40
2023-01-09T13:19:23.593Z,1.47
2023-01-09T13:21:49.992Z,1.53
2023-01-09T13:24:16.373Z,1.48
2023-01-09T13:26:43.812Z,1.22
2023-01-09T13:29:10.183Z,1.33
2023-01-09T13:31:36.662Z,1.62
2023-01-09T13:34:04.558Z,1.30
2023-01-09T13:36:33.007Z,1.55
2023-01-09T13:38:59.499Z,1.66
2023-01-09T13:41:25.868Z,1.27
2023-01-09T13:43:52.284Z,1.42
2023-01-09T13:46:18.668Z,1.13
2023-01-09T13:48:45.067Z,1.14
2023-01-09T13:51:11.438Z,0.80
2023-01-09T13:53:37.818Z,0.79
2023-01-09T13:56:05.213Z,0.56
2023-01-09T13:58:31.615Z,0.80
2023-01-09T14:00:58.000Z,0.60
2023-01-09T14:03:24.892Z,0.84
2023-01-09T14:05:51.263Z,0.69
2023-01-09T14:08:17.668Z,0.63
2023-01-09T14:10:44.268Z,0.63
2023-01-09T14:13:10.668Z,0.57
2023-01-09T14:15:37.158Z,0.38
2023-01-09T14:18:03.718Z,0.43
2023-01-09T14:20:30.121Z,0.42
2023-01-09T14:23:05.438Z,0.61
2023-01-09T14:25:42.969Z,0.47
2023-01-09T14:28:10.408Z,0.83
2023-01-09T14:30:39.879Z,0.52
2023-01-09T14:33:06.397Z,0.77
2023-01-09T14:35:32.757Z,1.00
2023-01-09T14:37:59.146Z,0.84
2023-01-09T14:40:25.567Z,0.52
2023-01-09T14:42:51.936Z,0.71
2023-01-09T14:45:18.330Z,0.55
2023-01-09T14:47:44.893Z,0.67
2023-01-09T14:50:11.443Z,0.76
2023-01-09T14:52:37.812Z,0.62
2023-01-09T14:55:04.201Z,0.61
2023-01-09T14:57:30.573Z,0.58
2023-01-09T14:59:57.063Z,0.74
2023-01-09T15:02:23.557Z,0.73
2023-01-09T15:04:49.994Z,0.93
2023-01-09T15:07:16.369Z,1.03
2023-01-09T15:09:42.800Z,1.02
2023-01-09T15:12:09.194Z,1.05
2023-01-09T15:14:35.562Z,1.10
2023-01-09T15:17:02.605Z,1.15
2023-01-09T15:19:28.979Z,1.07
2023-01-09T15:21:55.462Z,1.12
2023-01-09T15:24:21.825Z,1.54
2023-01-09T15:26:48.241Z,1.37
2023-01-09T15:29:14.671Z,1.18
2023-01-09T15:31:41.120Z,1.35
2023-01-09T15:34:07.525Z,1.21
2023-01-09T15:36:33.944Z,0.92
2023-01-09T15:39:00.386Z,1.11
2023-01-09T15:41:26.854Z,1.39
2023-01-09T15:43:53.239Z,1.12
2023-01-09T15:46:19.673Z,1.23
2023-01-09T15:48:46.119Z,1.30
2023-01-09T15:51:12.575Z,2.37
2023-01-09T15:53:39.016Z,1.27
2023-01-09T15:56:07.092Z,1.22
2023-01-09T15:58:33.607Z,1.10
2023-01-09T16:01:00.075Z,1.21
2023-01-09T16:03:26.442Z,1.15
2023-01-09T16:05:52.798Z,1.53
2023-01-09T16:08:19.168Z,5.87
2023-01-09T16:10:45.610Z,1.33
2023-01-09T16:13:11.996Z,1.17
2023-01-09T16:15:38.351Z,1.45
2023-01-09T16:18:04.729Z,1.05
2023-01-09T16:20:31.100Z,1.12
2023-01-09T16:22:57.518Z,1.76
2023-01-09T16:25:23.907Z,1.05
2023-01-09T16:27:50.324Z,0.97
2023-01-09T16:30:16.722Z,1.56
2023-01-09T16:32:43.127Z,0.93
2023-01-09T16:35:09.589Z,1.16
2023-01-09T16:37:35.974Z,1.21
2023-01-09T16:40:02.359Z,0.80
2023-01-09T16:42:28.760Z,0.63
2023-01-09T16:44:55.136Z,0.64
2023-01-09T16:47:21.498Z,0.64
2023-01-09T16:49:47.936Z,0.66
2023-01-09T16:52:14.286Z,1.27
2023-01-09T16:54:40.696Z,1.71
2023-01-09T16:57:07.082Z,2.01
2023-01-09T16:59:33.457Z,0.99
2023-01-09T17:01:59.855Z,1.12
2023-01-09T17:04:26.253Z,0.95
2023-01-09T17:06:52.635Z,0.97
2023-01-09T17:09:18.992Z,0.96
2023-01-09T17:11:45.430Z,0.93
2023-01-09T17:14:11.793Z,1.26
2023-01-09T17:16:46.020Z,1.30
2023-01-09T17:19:12.478Z,1.47
2023-01-09T17:21:38.853Z,1.64
2023-01-09T17:24:05.262Z,1.10
2023-01-09T17:26:31.621Z,1.14
2023-01-09T17:28:59.775Z,1.06
2023-01-09T17:31:26.397Z,1.15
2023-01-09T17:33:52.884Z,0.95
2023-01-09T17:36:19.250Z,1.35
2023-01-09T17:38:45.689Z,1.22
2023-01-09T17:41:12.095Z,1.38
2023-01-09T17:43:38.470Z,1.20
2023-01-09T17:46:05.022Z,1.39
2023-01-09T17:48:31.511Z,1.03
2023-01-09T17:50:57.891Z,0.90
2023-01-09T17:53:24.262Z,2.13
2023-01-09T17:55:50.725Z,1.20
2023-01-09T17:58:17.252Z,1.21
2023-01-09T18:00:43.603Z,1.43
2023-01-09T18:03:09.993Z,1.75
2023-01-09T18:05:36.370Z,2.06
2023-01-09T18:08:02.765Z,1.98
2023-01-09T18:10:29.191Z,1.70
2023-01-09T18:12:55.581Z,1.43
2023-01-09T18:15:21.995Z,1.32
2023-01-09T18:17:48.455Z,1.11
2023-01-09T18:20:14.913Z,1.08
2023-01-09T18:22:41.252Z,1.20
2023-01-09T18:25:07.625Z,1.47
2023-01-09T18:27:34.014Z,1.07
2023-01-09T18:30:00.441Z,0.89
2023-01-09T18:32:26.864Z,0.92
2023-01-09T18:34:53.227Z,1.24
2023-01-09T18:37:19.627Z,1.27
2023-01-09T18:39:45.996Z,1.41
2023-01-09T18:42:12.388Z,3.84
2023-01-09T18:44:38.756Z,1.70
2023-01-09T18:47:05.139Z,1.54
2023-01-09T18:49:31.642Z,1.29
2023-01-09T18:51:58.040Z,1.62
2023-01-09T18:54:24.421Z,1.68
2023-01-09T18:56:50.854Z,1.80
2023-01-09T18:59:18.172Z,2.39
2023-01-09T19:01:44.525Z,2.32
2023-01-09T19:04:10.979Z,2.18
2023-01-09T19:06:37.493Z,1.83
2023-01-09T19:09:03.805Z,1.31
2023-01-09T19:11:30.289Z,1.44
2023-01-09T19:13:57.934Z,1.74
2023-01-09T19:16:27.365Z,1.30
2023-01-09T19:18:53.816Z,1.12
2023-01-09T19:21:20.178Z,1.31
2023-01-09T19:23:46.569Z,1.09
2023-01-09T19:26:13.029Z,1.00
2023-01-09T19:28:39.381Z,1.30
2023-01-09T19:31:05.801Z,1.75
2023-01-09T19:33:32.172Z,1.32
2023-01-09T19:35:58.547Z,1.24
2023-01-09T19:38:24.962Z,1.28
2023-01-09T19:40:51.339Z,1.21
2023-01-09T19:43:17.760Z,1.82
2023-01-09T19:45:44.210Z,1.81
2023-01-09T19:48:10.731Z,1.51
2023-01-09T19:50:37.135Z,1.19
2023-01-09T19:53:03.531Z,1.28
2023-01-09T19:55:29.947Z,1.17
2023-01-09T19:57:56.446Z,1.36
2023-01-09T20:00:22.892Z,1.43
2023-01-09T20:02:49.254Z,2.09
2023-01-09T20:05:15.616Z,1.31
2023-01-09T20:07:41.983Z,1.43
2023-01-09T20:10:08.498Z,1.18
2023-01-09T20:12:35.023Z,1.26
2023-01-09T20:15:01.419Z,1.38
2023-01-09T20:17:27.769Z,1.01
2023-01-09T20:19:54.179Z,0.95
2023-01-09T20:22:20.552Z,1.02
2023-01-09T20:24:47.012Z,1.18
2023-01-09T20:27:13.409Z,1.25
2023-01-09T20:29:39.833Z,1.41
2023-01-09T20:32:06.260Z,1.52
2023-01-09T20:34:32.709Z,1.68
2023-01-09T20:36:59.263Z,1.93
2023-01-09T20:39:25.755Z,1.51
2023-01-09T20:41:52.167Z,1.36
2023-01-09T20:44:18.537Z,1.29
2023-01-09T20:46:44.943Z,1.38
2023-01-09T20:49:11.324Z,1.59
2023-01-09T20:51:37.720Z,3.03
2023-01-09T20:54:04.148Z,2.29
2023-01-09T20:56:32.833Z,1.63
2023-01-09T20:58:59.230Z,1.32
2023-01-09T21:01:25.633Z,1.37
2023-01-09T21:03:52.161Z,1.35
2023-01-09T21:06:18.604Z,1.29
2023-01-09T21:08:45.007Z,1.41
2023-01-09T21:11:11.460Z,1.24
2023-01-09T21:13:37.812Z,1.24
2023-01-09T21:16:04.297Z,1.37
2023-01-09T21:18:32.610Z,1.03
2023-01-09T21:20:58.992Z,1.01
2023-01-09T21:23:25.408Z,1.26
2023-01-09T21:25:51.861Z,1.04
2023-01-09T21:28:18.218Z,0.92
2023-01-09T21:30:45.739Z,0.91
2023-01-09T21:33:12.197Z,0.96
2023-01-09T21:35:38.618Z,1.07
2023-01-09T21:38:05.019Z,1.05
2023-01-09T21:40:31.840Z,0.97
2023-01-09T21:42:58.280Z,1.00
2023-01-09T21:45:24.723Z,1.23
2023-01-09T21:47:51.154Z,0.90
2023-01-09T21:50:17.603Z,0.77
2023-01-09T21:52:44.060Z,0.99
2023-01-09T21:55:10.431Z,1.13
2023-01-09T21:57:36.834Z,1.19
2023-01-09T22:00:03.299Z,1.04
2023-01-09T22:02:29.654Z,1.06
2023-01-09T22:04:56.060Z,1.69
2023-01-09T22:07:22.490Z,1.64
2023-01-09T22:09:48.886Z,1.68
2023-01-09T22:12:15.272Z,1.42
2023-01-09T22:14:41.843Z,0.99
2023-01-09T22:17:08.234Z,1.12
2023-01-09T22:19:34.801Z,1.14
2023-01-09T22:22:01.225Z,1.07
2023-01-09T22:24:27.608Z,1.47
2023-01-09T22:26:55.187Z,1.25
2023-01-09T22:29:21.589Z,0.94
2023-01-09T22:31:48.037Z,1.12
2023-01-09T22:34:14.471Z,1.05
2023-01-09T22:36:40.970Z,0.95
2023-01-09T22:39:08.586Z,0.95
2023-01-09T22:41:34.994Z,1.13
2023-01-09T22:44:01.390Z,0.92
2023-01-09T22:46:27.781Z,1.01
2023-01-09T22:48:54.158Z,0.95
2023-01-09T22:51:20.547Z,1.04
2023-01-09T22:53:46.942Z,1.26
2023-01-09T22:56:13.399Z,1.18
2023-01-09T22:58:39.769Z,1.07
2023-01-09T23:01:06.169Z,1.07
2023-01-09T23:03:32.552Z,0.99
2023-01-09T23:05:58.911Z,1.02
2023-01-09T23:08:25.396Z,1.04
2023-01-09T23:10:51.830Z,1.19
2023-01-09T23:13:18.190Z,1.19
2023-01-09T23:15:44.556Z,1.09
2023-01-09T23:18:11.002Z,1.08
2023-01-09T23:20:37.397Z,1.08
2023-01-09T23:23:03.739Z,0.96
2023-01-09T23:25:30.152Z,1.05
2023-01-09T23:27:56.514Z,1.34
2023-01-09T23:30:22.902Z,1.26
2023-01-09T23:32:49.374Z,1.16
2023-01-09T23:35:15.766Z,1.14
2023-01-09T23:37:42.131Z,1.11
2023-01-09T23:40:08.509Z,1.04
2023-01-09T23:42:34.872Z,1.10
2023-01-09T23:45:01.316Z,1.24
2023-01-09T23:47:27.725Z,1.06
2023-01-09T23:49:54.133Z,0.96
2023-01-09T23:52:20.523Z,1.04
2023-01-09T23:54:46.989Z,1.06
2023-01-09T23:57:13.386Z,0.89
2023-01-09T23:59:39.753Z,1.00
